sensor_id;sensor_type;location;lat;lon;timestamp;noise_LAeq;noise_LA_min;noise_LA_max;noise_LA01;noise_LA95
47109;Laerm;32856;51.422;6.794;2024-03-23T00:54:26;50.89;46.33;59.91;;
47109;Laerm;32856;51.422;6.794;2024-03-23T00:56:51;48.40;44.65;62.47;;
47109;Laerm;32856;51.422;6.794;2024-03-23T00:59:18;59.21;46.30;72.91;;
47109;Laerm;32856;51.422;6.794;2024-03-23T01:01:44;49.78;43.54;60.39;;
47109;Laerm;32856;51.422;6.794;2024-03-23T01:04:10;49.32;44.03;57.30;;
47109;Laerm;32856;51.422;6.794;2024-03-23T01:06:36;61.58;48.00;75.37;;
47109;Laerm;32856;51.422;6.794;2024-03-23T01:09:02;53.28;43.58;67.51;;
47109;Laerm;32856;51.422;6.794;2024-03-23T01:11:29;54.00;45.30;70.89;;
47109;Laerm;32856;51.422;6.794;2024-03-23T01:13:55;56.81;46.80;69.78;;
47109;Laerm;32856;51.422;6.794;2024-03-23T01:16:21;48.43;43.54;56.08;;
47109;Laerm;32856;51.422;6.794;2024-03-23T01:18:48;57.19;43.34;74.41;;
47109;Laerm;32856;51.422;6.794;2024-03-23T01:21:13;55.79;43.34;70.15;;
47109;Laerm;32856;51.422;6.794;2024-03-23T01:23:40;58.93;44.58;74.71;;
47109;Laerm;32856;51.422;6.794;2024-03-23T01:26:05;50.81;44.90;60.40;;
47109;Laerm;32856;51.422;6.794;2024-03-23T01:28:33;49.82;44.58;59.26;;
47109;Laerm;32856;51.422;6.794;2024-03-23T01:30:58;63.80;43.58;81.12;;
47109;Laerm;32856;51.422;6.794;2024-03-23T01:33:25;47.52;42.41;58.64;;
47109;Laerm;32856;51.422;6.794;2024-03-23T01:35:50;47.15;41.61;54.77;;
47109;Laerm;32856;51.422;6.794;2024-03-23T01:38:17;58.55;45.60;76.74;;
47109;Laerm;32856;51.422;6.794;2024-03-23T01:40:42;50.85;44.52;57.68;;
47109;Laerm;32856;51.422;6.794;2024-03-23T01:43:09;53.34;43.81;67.82;;
47109;Laerm;32856;51.422;6.794;2024-03-23T01:45:35;56.50;44.11;70.43;;
47109;Laerm;32856;51.422;6.794;2024-03-23T01:48:02;52.89;44.54;68.58;;
47109;Laerm;32856;51.422;6.794;2024-03-23T01:50:28;58.93;45.66;72.41;;
47109;Laerm;32856;51.422;6.794;2024-03-23T01:52:58;58.72;45.30;77.47;;
47109;Laerm;32856;51.422;6.794;2024-03-23T01:55:23;55.08;42.88;70.55;;
47109;Laerm;32856;51.422;6.794;2024-03-23T01:57:51;58.20;44.35;73.16;;
47109;Laerm;32856;51.422;6.794;2024-03-23T02:00:17;59.69;45.11;75.34;;
47109;Laerm;32856;51.422;6.794;2024-03-23T02:02:45;55.91;43.72;72.95;;
47109;Laerm;32856;51.422;6.794;2024-03-23T02:05:10;57.25;47.55;73.55;;
47109;Laerm;32856;51.422;6.794;2024-03-23T02:07:37;57.41;46.84;72.93;;
47109;Laerm;32856;51.422;6.794;2024-03-23T02:10:03;60.54;45.48;76.29;;
47109;Laerm;32856;51.422;6.794;2024-03-23T02:12:29;50.67;46.89;55.02;;
47109;Laerm;32856;51.422;6.794;2024-03-23T02:14:55;51.14;46.76;55.25;;
47109;Laerm;32856;51.422;6.794;2024-03-23T02:17:21;50.77;46.05;55.27;;
47109;Laerm;32856;51.422;6.794;2024-03-23T02:19:48;56.38;45.17;72.34;;
47109;Laerm;32856;51.422;6.794;2024-03-23T02:22:14;56.00;46.50;69.92;;
47109;Laerm;32856;51.422;6.794;2024-03-23T02:24:42;61.35;49.84;74.56;;
47109;Laerm;32856;51.422;6.794;2024-03-23T02:27:09;50.18;46.10;54.58;;
47109;Laerm;32856;51.422;6.794;2024-03-23T02:29:34;49.99;45.36;55.75;;
47109;Laerm;32856;51.422;6.794;2024-03-23T02:32:01;52.80;45.63;60.23;;
47109;Laerm;32856;51.422;6.794;2024-03-23T02:34:26;57.20;44.94;75.34;;
47109;Laerm;32856;51.422;6.794;2024-03-23T02:36:53;57.12;46.66;71.02;;
47109;Laerm;32856;51.422;6.794;2024-03-23T02:39:18;49.46;43.99;55.77;;
47109;Laerm;32856;51.422;6.794;2024-03-23T02:41:46;47.88;43.63;53.50;;
47109;Laerm;32856;51.422;6.794;2024-03-23T02:44:13;50.11;42.88;63.14;;
47109;Laerm;32856;51.422;6.794;2024-03-23T02:46:40;57.37;45.27;75.55;;
47109;Laerm;32856;51.422;6.794;2024-03-23T02:49:05;48.13;43.09;55.39;;
47109;Laerm;32856;51.422;6.794;2024-03-23T02:51:32;49.44;45.01;55.39;;
47109;Laerm;32856;51.422;6.794;2024-03-23T02:53:57;55.42;43.90;70.83;;
47109;Laerm;32856;51.422;6.794;2024-03-23T02:56:24;52.14;45.39;60.16;;
47109;Laerm;32856;51.422;6.794;2024-03-23T02:58:50;56.89;46.52;74.15;;
47109;Laerm;32856;51.422;6.794;2024-03-23T03:01:17;49.89;45.51;57.00;;
47109;Laerm;32856;51.422;6.794;2024-03-23T03:03:42;50.73;45.63;57.83;;
47109;Laerm;32856;51.422;6.794;2024-03-23T03:06:09;57.68;45.60;74.83;;
47109;Laerm;32856;51.422;6.794;2024-03-23T03:08:35;49.34;42.93;55.90;;
47109;Laerm;32856;51.422;6.794;2024-03-23T03:11:01;50.74;47.30;59.44;;
47109;Laerm;32856;51.422;6.794;2024-03-23T03:13:27;63.05;46.67;78.60;;
47109;Laerm;32856;51.422;6.794;2024-03-23T03:15:55;49.10;44.47;56.35;;
47109;Laerm;32856;51.422;6.794;2024-03-23T03:18:20;57.68;45.31;75.15;;
47109;Laerm;32856;51.422;6.794;2024-03-23T03:20:46;54.05;44.58;71.59;;
47109;Laerm;32856;51.422;6.794;2024-03-23T03:23:12;58.26;46.64;73.60;;
47109;Laerm;32856;51.422;6.794;2024-03-23T03:25:38;55.11;46.52;71.19;;
47109;Laerm;32856;51.422;6.794;2024-03-23T03:28:04;58.56;45.30;74.87;;
47109;Laerm;32856;51.422;6.794;2024-03-23T03:30:31;54.22;46.82;60.75;;
47109;Laerm;32856;51.422;6.794;2024-03-23T03:32:58;49.37;45.39;55.64;;
47109;Laerm;32856;51.422;6.794;2024-03-23T03:35:24;49.20;43.54;56.71;;
47109;Laerm;32856;51.422;6.794;2024-03-23T03:37:50;60.94;46.48;76.03;;
47109;Laerm;32856;51.422;6.794;2024-03-23T03:40:16;64.22;47.10;81.86;;
47109;Laerm;32856;51.422;6.794;2024-03-23T03:42:42;56.50;45.36;71.36;;
47109;Laerm;32856;51.422;6.794;2024-03-23T03:45:08;57.92;47.30;73.11;;
47109;Laerm;32856;51.422;6.794;2024-03-23T03:47:33;64.37;48.49;77.77;;
47109;Laerm;32856;51.422;6.794;2024-03-23T03:50:01;63.34;47.93;80.69;;
47109;Laerm;32856;51.422;6.794;2024-03-23T03:52:27;49.58;44.15;56.74;;
47109;Laerm;32856;51.422;6.794;2024-03-23T03:54:55;49.70;45.80;55.92;;
47109;Laerm;32856;51.422;6.794;2024-03-23T03:57:20;57.49;46.25;75.23;;
47109;Laerm;32856;51.422;6.794;2024-03-23T03:59:47;61.96;46.28;79.06;;
47109;Laerm;32856;51.422;6.794;2024-03-23T04:02:12;61.42;47.24;74.49;;
47109;Laerm;32856;51.422;6.794;2024-03-23T04:04:39;57.19;44.83;74.02;;
47109;Laerm;32856;51.422;6.794;2024-03-23T04:07:05;56.73;45.48;72.12;;
47109;Laerm;32856;51.422;6.794;2024-03-23T04:09:32;56.98;45.51;72.61;;
47109;Laerm;32856;51.422;6.794;2024-03-23T04:11:57;58.60;47.67;73.61;;
47109;Laerm;32856;51.422;6.794;2024-03-23T04:14:24;63.21;45.54;77.21;;
47109;Laerm;32856;51.422;6.794;2024-03-23T04:16:49;63.28;44.39;79.13;;
47109;Laerm;32856;51.422;6.794;2024-03-23T04:19:16;51.07;46.07;56.56;;
47109;Laerm;32856;51.422;6.794;2024-03-23T04:21:41;56.48;47.46;71.99;;
47109;Laerm;32856;51.422;6.794;2024-03-23T04:24:09;59.80;46.76;74.22;;
47109;Laerm;32856;51.422;6.794;2024-03-23T04:26:40;51.88;46.25;63.29;;
47109;Laerm;32856;51.422;6.794;2024-03-23T04:29:06;55.51;47.10;70.93;;
47109;Laerm;32856;51.422;6.794;2024-03-23T04:31:32;51.32;46.93;58.14;;
47109;Laerm;32856;51.422;6.794;2024-03-23T04:33:59;57.55;46.87;72.70;;
47109;Laerm;32856;51.422;6.794;2024-03-23T04:36:25;51.56;47.00;57.75;;
47109;Laerm;32856;51.422;6.794;2024-03-23T04:38:52;53.36;49.18;57.81;;
47109;Laerm;32856;51.422;6.794;2024-03-23T04:41:20;51.71;46.69;57.48;;
47109;Laerm;32856;51.422;6.794;2024-03-23T04:43:46;61.94;48.10;76.62;;
47109;Laerm;32856;51.422;6.794;2024-03-23T04:46:13;63.06;45.77;79.78;;
47109;Laerm;32856;51.422;6.794;2024-03-23T04:48:39;60.15;46.82;72.94;;
47109;Laerm;32856;51.422;6.794;2024-03-23T04:51:06;55.44;45.33;72.09;;
47109;Laerm;32856;51.422;6.794;2024-03-23T04:53:31;60.42;47.61;74.98;;
47109;Laerm;32856;51.422;6.794;2024-03-23T04:55:58;53.79;47.18;66.49;;
47109;Laerm;32856;51.422;6.794;2024-03-23T04:58:26;61.27;46.80;74.66;;
47109;Laerm;32856;51.422;6.794;2024-03-23T05:00:55;56.77;47.80;68.94;;
47109;Laerm;32856;51.422;6.794;2024-03-23T05:03:22;61.25;48.18;75.11;;
47109;Laerm;32856;51.422;6.794;2024-03-23T05:05:47;63.38;49.74;76.12;;
47109;Laerm;32856;51.422;6.794;2024-03-23T05:08:14;59.17;49.71;72.66;;
47109;Laerm;32856;51.422;6.794;2024-03-23T05:10:41;54.13;47.24;67.91;;
47109;Laerm;32856;51.422;6.794;2024-03-23T05:13:07;61.01;48.95;74.40;;
47109;Laerm;32856;51.422;6.794;2024-03-23T05:15:35;57.47;48.32;73.31;;
47109;Laerm;32856;51.422;6.794;2024-03-23T05:18:01;65.37;48.37;78.83;;
47109;Laerm;32856;51.422;6.794;2024-03-23T05:20:27;57.65;48.36;71.87;;
47109;Laerm;32856;51.422;6.794;2024-03-23T05:22:54;62.53;48.20;76.81;;
47109;Laerm;32856;51.422;6.794;2024-03-23T05:25:21;55.36;48.02;68.98;;
47109;Laerm;32856;51.422;6.794;2024-03-23T05:27:46;58.12;48.95;70.35;;
47109;Laerm;32856;51.422;6.794;2024-03-23T05:30:13;61.55;47.81;76.85;;
47109;Laerm;32856;51.422;6.794;2024-03-23T05:32:40;51.40;46.73;61.07;;
47109;Laerm;32856;51.422;6.794;2024-03-23T05:35:07;61.68;48.00;76.11;;
47109;Laerm;32856;51.422;6.794;2024-03-23T05:37:33;60.69;48.10;75.27;;
47109;Laerm;32856;51.422;6.794;2024-03-23T05:40:00;52.95;48.08;67.98;;
47109;Laerm;32856;51.422;6.794;2024-03-23T05:42:25;62.39;48.74;79.06;;
47109;Laerm;32856;51.422;6.794;2024-03-23T05:44:52;62.23;48.37;76.92;;
47109;Laerm;32856;51.422;6.794;2024-03-23T05:47:17;64.13;44.65;79.09;;
47109;Laerm;32856;51.422;6.794;2024-03-23T05:49:46;66.50;48.64;81.24;;
47109;Laerm;32856;51.422;6.794;2024-03-23T05:52:12;56.94;47.10;73.66;;
47109;Laerm;32856;51.422;6.794;2024-03-23T05:54:39;54.96;44.73;70.34;;
47109;Laerm;32856;51.422;6.794;2024-03-23T05:57:05;52.20;47.36;57.44;;
47109;Laerm;32856;51.422;6.794;2024-03-23T05:59:32;52.11;47.11;60.80;;
47109;Laerm;32856;51.422;6.794;2024-03-23T06:01:58;52.79;48.26;68.03;;
47109;Laerm;32856;51.422;6.794;2024-03-23T06:04:24;58.30;46.55;74.16;;
47109;Laerm;32856;51.422;6.794;2024-03-23T06:06:51;61.20;48.52;74.90;;
47109;Laerm;32856;51.422;6.794;2024-03-23T06:09:18;59.22;48.23;75.13;;
47109;Laerm;32856;51.422;6.794;2024-03-23T06:11:44;64.35;46.91;78.20;;
47109;Laerm;32856;51.422;6.794;2024-03-23T06:14:11;59.93;46.40;73.08;;
47109;Laerm;32856;51.422;6.794;2024-03-23T06:16:36;63.34;48.51;78.90;;
47109;Laerm;32856;51.422;6.794;2024-03-23T06:19:02;58.58;48.26;72.03;;
47109;Laerm;32856;51.422;6.794;2024-03-23T06:21:29;61.13;49.71;72.89;;
47109;Laerm;32856;51.422;6.794;2024-03-23T06:23:57;51.37;46.73;58.86;;
47109;Laerm;32856;51.422;6.794;2024-03-23T06:26:23;56.67;47.48;71.06;;
47109;Laerm;32856;51.422;6.794;2024-03-23T06:28:49;52.01;47.48;61.76;;
47109;Laerm;32856;51.422;6.794;2024-03-23T06:31:15;55.68;46.57;70.73;;
47109;Laerm;32856;51.422;6.794;2024-03-23T06:33:42;58.38;48.40;71.85;;
47109;Laerm;32856;51.422;6.794;2024-03-23T06:36:08;59.67;48.43;73.10;;
47109;Laerm;32856;51.422;6.794;2024-03-23T06:38:35;58.84;48.61;70.42;;
47109;Laerm;32856;51.422;6.794;2024-03-23T06:41:03;61.40;50.13;76.77;;
47109;Laerm;32856;51.422;6.794;2024-03-23T06:43:30;60.37;46.76;73.92;;
47109;Laerm;32856;51.422;6.794;2024-03-23T06:45:56;63.31;49.11;78.88;;
47109;Laerm;32856;51.422;6.794;2024-03-23T06:48:22;65.16;48.25;79.32;;
47109;Laerm;32856;51.422;6.794;2024-03-23T06:50:48;59.14;48.10;73.05;;
47109;Laerm;32856;51.422;6.794;2024-03-23T06:53:14;57.93;47.76;70.74;;
47109;Laerm;32856;51.422;6.794;2024-03-23T06:55:40;61.03;47.93;74.46;;
47109;Laerm;32856;51.422;6.794;2024-03-23T06:58:08;62.58;48.76;75.31;;
47109;Laerm;32856;51.422;6.794;2024-03-23T07:00:35;62.36;49.27;73.30;;
47109;Laerm;32856;51.422;6.794;2024-03-23T07:03:02;61.30;49.12;75.14;;
47109;Laerm;32856;51.422;6.794;2024-03-23T07:05:29;61.64;48.31;74.87;;
47109;Laerm;32856;51.422;6.794;2024-03-23T07:07:55;59.40;46.89;74.73;;
47109;Laerm;32856;51.422;6.794;2024-03-23T07:10:21;60.96;48.83;72.47;;
47109;Laerm;32856;51.422;6.794;2024-03-23T07:12:47;59.52;47.54;74.49;;
47109;Laerm;32856;51.422;6.794;2024-03-23T07:15:14;63.91;49.11;79.40;;
47109;Laerm;32856;51.422;6.794;2024-03-23T07:17:41;62.21;46.84;76.74;;
47109;Laerm;32856;51.422;6.794;2024-03-23T07:20:07;60.68;48.05;77.42;;
47109;Laerm;32856;51.422;6.794;2024-03-23T07:22:35;62.87;50.07;72.94;;
47109;Laerm;32856;51.422;6.794;2024-03-23T07:25:01;55.38;47.12;68.40;;
47109;Laerm;32856;51.422;6.794;2024-03-23T07:27:28;60.24;48.52;73.60;;
47109;Laerm;32856;51.422;6.794;2024-03-23T07:29:53;69.66;49.34;83.37;;
47109;Laerm;32856;51.422;6.794;2024-03-23T07:32:21;63.74;48.08;77.34;;
47109;Laerm;32856;51.422;6.794;2024-03-23T07:34:47;60.09;47.48;71.30;;
47109;Laerm;32856;51.422;6.794;2024-03-23T07:37:13;62.40;47.32;73.50;;
47109;Laerm;32856;51.422;6.794;2024-03-23T07:39:39;62.46;49.03;74.77;;
47109;Laerm;32856;51.422;6.794;2024-03-23T07:42:06;62.53;48.77;73.68;;
47109;Laerm;32856;51.422;6.794;2024-03-23T07:44:31;63.65;48.76;78.25;;
47109;Laerm;32856;51.422;6.794;2024-03-23T07:46:58;63.02;47.38;80.40;;
47109;Laerm;32856;51.422;6.794;2024-03-23T07:49:25;66.81;48.95;81.09;;
47109;Laerm;32856;51.422;6.794;2024-03-23T07:51:51;59.56;49.15;71.43;;
47109;Laerm;32856;51.422;6.794;2024-03-23T07:54:17;63.76;48.36;75.18;;
47109;Laerm;32856;51.422;6.794;2024-03-23T07:56:43;57.76;49.10;71.78;;
47109;Laerm;32856;51.422;6.794;2024-03-23T07:59:09;60.85;49.91;72.76;;
47109;Laerm;32856;51.422;6.794;2024-03-23T08:01:36;59.85;48.70;75.13;;
47109;Laerm;32856;51.422;6.794;2024-03-23T08:04:01;56.20;47.77;71.97;;
47109;Laerm;32856;51.422;6.794;2024-03-23T08:06:29;62.30;49.29;75.92;;
47109;Laerm;32856;51.422;6.794;2024-03-23T08:08:55;63.40;50.59;72.83;;
47109;Laerm;32856;51.422;6.794;2024-03-23T08:11:25;61.34;49.59;77.57;;
47109;Laerm;32856;51.422;6.794;2024-03-23T08:13:52;62.29;48.18;75.42;;
47109;Laerm;32856;51.422;6.794;2024-03-23T08:16:18;65.33;48.67;79.45;;
47109;Laerm;32856;51.422;6.794;2024-03-23T08:18:45;63.83;49.96;78.24;;
47109;Laerm;32856;51.422;6.794;2024-03-23T08:21:11;64.39;48.55;75.91;;
47109;Laerm;32856;51.422;6.794;2024-03-23T08:23:38;62.85;48.55;77.60;;
47109;Laerm;32856;51.422;6.794;2024-03-23T08:26:05;63.37;48.91;77.58;;
47109;Laerm;32856;51.422;6.794;2024-03-23T08:28:32;65.28;49.87;80.44;;
47109;Laerm;32856;51.422;6.794;2024-03-23T08:31:00;66.59;48.90;86.10;;
47109;Laerm;32856;51.422;6.794;2024-03-23T08:33:26;66.01;49.69;76.44;;
47109;Laerm;32856;51.422;6.794;2024-03-23T08:35:53;64.91;49.45;77.97;;
47109;Laerm;32856;51.422;6.794;2024-03-23T08:38:19;65.17;50.32;75.91;;
47109;Laerm;32856;51.422;6.794;2024-03-23T08:40:46;63.46;48.52;76.27;;
47109;Laerm;32856;51.422;6.794;2024-03-23T08:43:13;66.15;49.70;79.46;;
47109;Laerm;32856;51.422;6.794;2024-03-23T08:45:38;66.59;49.07;80.72;;
47109;Laerm;32856;51.422;6.794;2024-03-23T08:48:05;63.19;49.95;73.22;;
47109;Laerm;32856;51.422;6.794;2024-03-23T08:50:31;65.71;49.56;76.55;;
47109;Laerm;32856;51.422;6.794;2024-03-23T08:52:57;64.64;49.96;76.47;;
47109;Laerm;32856;51.422;6.794;2024-03-23T08:55:23;64.65;48.55;75.43;;
47109;Laerm;32856;51.422;6.794;2024-03-23T08:57:50;66.43;50.83;76.51;;
47109;Laerm;32856;51.422;6.794;2024-03-23T09:00:16;61.40;49.32;73.39;;
47109;Laerm;32856;51.422;6.794;2024-03-23T09:02:43;66.00;48.49;79.88;;
47109;Laerm;32856;51.422;6.794;2024-03-23T09:05:12;64.27;48.90;76.31;;
47109;Laerm;32856;51.422;6.794;2024-03-23T09:07:38;65.19;49.78;80.76;;
47109;Laerm;32856;51.422;6.794;2024-03-23T09:10:05;62.37;48.51;74.08;;
47109;Laerm;32856;51.422;6.794;2024-03-23T09:12:31;63.03;50.77;75.87;;
47109;Laerm;32856;51.422;6.794;2024-03-23T09:14:58;64.02;48.95;74.91;;
47109;Laerm;32856;51.422;6.794;2024-03-23T09:17:25;65.15;51.33;77.94;;
47109;Laerm;32856;51.422;6.794;2024-03-23T09:19:50;62.92;50.24;74.48;;
47109;Laerm;32856;51.422;6.794;2024-03-23T09:22:17;64.70;51.37;77.56;;
47109;Laerm;32856;51.422;6.794;2024-03-23T09:24:42;61.93;50.92;73.85;;
47109;Laerm;32856;51.422;6.794;2024-03-23T09:27:09;64.68;51.40;75.21;;
47109;Laerm;32856;51.422;6.794;2024-03-23T09:29:34;61.42;50.52;73.28;;
47109;Laerm;32856;51.422;6.794;2024-03-23T09:32:02;63.49;51.50;82.58;;
47109;Laerm;32856;51.422;6.794;2024-03-23T09:34:28;62.52;50.31;73.87;;
47109;Laerm;32856;51.422;6.794;2024-03-23T09:36:55;65.05;50.99;74.70;;
47109;Laerm;32856;51.422;6.794;2024-03-23T09:39:21;62.70;51.59;71.61;;
47109;Laerm;32856;51.422;6.794;2024-03-23T09:41:47;65.09;51.77;73.90;;
47109;Laerm;32856;51.422;6.794;2024-03-23T09:44:13;61.95;50.95;74.39;;
47109;Laerm;32856;51.422;6.794;2024-03-23T09:46:40;66.39;50.56;79.00;;
47109;Laerm;32856;51.422;6.794;2024-03-23T09:49:07;64.87;50.22;74.64;;
47109;Laerm;32856;51.422;6.794;2024-03-23T09:51:35;65.85;49.95;79.90;;
47109;Laerm;32856;51.422;6.794;2024-03-23T09:54:01;64.66;49.06;81.76;;
47109;Laerm;32856;51.422;6.794;2024-03-23T09:56:27;64.79;49.65;75.07;;
47109;Laerm;32856;51.422;6.794;2024-03-23T09:58:59;66.11;48.87;75.82;;
47109;Laerm;32856;51.422;6.794;2024-03-23T10:01:26;62.64;48.15;75.38;;
47109;Laerm;32856;51.422;6.794;2024-03-23T10:03:51;63.48;48.91;77.27;;
47109;Laerm;32856;51.422;6.794;2024-03-23T10:06:22;63.42;46.91;75.60;;
47109;Laerm;32856;51.422;6.794;2024-03-23T10:08:50;65.94;48.07;76.13;;
47109;Laerm;32856;51.422;6.794;2024-03-23T10:11:16;60.87;47.51;76.78;;
47109;Laerm;32856;51.422;6.794;2024-03-23T10:13:42;65.24;49.32;77.93;;
47109;Laerm;32856;51.422;6.794;2024-03-23T10:16:09;62.89;47.20;76.40;;
47109;Laerm;32856;51.422;6.794;2024-03-23T10:18:37;66.72;47.16;77.90;;
47109;Laerm;32856;51.422;6.794;2024-03-23T10:21:07;61.39;47.20;71.29;;
47109;Laerm;32856;51.422;6.794;2024-03-23T10:23:35;62.99;47.16;72.93;;
47109;Laerm;32856;51.422;6.794;2024-03-23T10:28:51;64.88;47.00;76.99;;
47109;Laerm;32856;51.422;6.794;2024-03-23T10:31:18;64.40;47.10;84.66;;
47109;Laerm;32856;51.422;6.794;2024-03-23T10:33:44;63.69;50.23;74.13;;
47109;Laerm;32856;51.422;6.794;2024-03-23T10:36:12;67.55;49.51;83.68;;
47109;Laerm;32856;51.422;6.794;2024-03-23T10:38:39;66.84;57.74;78.45;;
47109;Laerm;32856;51.422;6.794;2024-03-23T10:41:07;67.07;50.30;77.56;;
47109;Laerm;32856;51.422;6.794;2024-03-23T10:43:33;70.23;50.48;80.93;;
47109;Laerm;32856;51.422;6.794;2024-03-23T10:46:00;67.59;48.15;77.81;;
47109;Laerm;32856;51.422;6.794;2024-03-23T10:48:26;67.51;49.28;78.04;;
47109;Laerm;32856;51.422;6.794;2024-03-23T10:50:53;67.67;50.57;77.10;;
47109;Laerm;32856;51.422;6.794;2024-03-23T10:53:18;69.77;53.72;81.40;;
47109;Laerm;32856;51.422;6.794;2024-03-23T10:55:46;68.67;50.22;77.61;;
47109;Laerm;32856;51.422;6.794;2024-03-23T10:58:12;65.62;49.36;76.35;;
47109;Laerm;32856;51.422;6.794;2024-03-23T11:00:39;67.73;51.33;77.91;;
47109;Laerm;32856;51.422;6.794;2024-03-23T11:05:46;66.04;49.74;79.03;;
47109;Laerm;32856;51.422;6.794;2024-03-23T11:08:11;67.40;49.15;77.29;;
47109;Laerm;32856;51.422;6.794;2024-03-23T11:11:09;65.00;48.84;74.70;;
47109;Laerm;32856;51.422;6.794;2024-03-23T11:13:36;66.33;50.14;80.63;;
47109;Laerm;32856;51.422;6.794;2024-03-23T11:16:12;68.37;49.10;81.37;;
47109;Laerm;32856;51.422;6.794;2024-03-23T11:18:38;68.20;49.55;80.86;;
47109;Laerm;32856;51.422;6.794;2024-03-23T11:21:06;67.67;49.70;76.62;;
47109;Laerm;32856;51.422;6.794;2024-03-23T11:23:31;65.04;47.99;75.76;;
47109;Laerm;32856;51.422;6.794;2024-03-23T11:25:58;67.00;48.76;77.73;;
47109;Laerm;32856;51.422;6.794;2024-03-23T11:28:25;68.10;52.08;77.12;;
47109;Laerm;32856;51.422;6.794;2024-03-23T11:30:51;64.41;49.32;76.72;;
47109;Laerm;32856;51.422;6.794;2024-03-23T11:33:17;66.02;47.41;78.40;;
47109;Laerm;32856;51.422;6.794;2024-03-23T11:35:43;64.21;48.32;78.94;;
47109;Laerm;32856;51.422;6.794;2024-03-23T11:38:10;65.61;50.36;75.39;;
47109;Laerm;32856;51.422;6.794;2024-03-23T11:40:37;66.78;51.08;77.47;;
47109;Laerm;32856;51.422;6.794;2024-03-23T11:43:03;66.32;49.91;79.54;;
47109;Laerm;32856;51.422;6.794;2024-03-23T11:45:34;66.36;49.56;76.90;;
47109;Laerm;32856;51.422;6.794;2024-03-23T11:48:04;65.01;49.69;75.31;;
47109;Laerm;32856;51.422;6.794;2024-03-23T11:50:31;66.73;52.17;83.44;;
47109;Laerm;32856;51.422;6.794;2024-03-23T11:53:12;64.65;48.16;76.81;;
47109;Laerm;32856;51.422;6.794;2024-03-23T11:55:39;65.47;50.64;75.40;;
47109;Laerm;32856;51.422;6.794;2024-03-23T11:58:06;67.44;51.03;85.18;;
47109;Laerm;32856;51.422;6.794;2024-03-23T12:00:34;67.51;52.80;76.95;;
47109;Laerm;32856;51.422;6.794;2024-03-23T12:03:00;66.78;51.65;77.29;;
47109;Laerm;32856;51.422;6.794;2024-03-23T12:05:26;66.83;52.94;74.75;;
47109;Laerm;32856;51.422;6.794;2024-03-23T12:07:52;62.96;50.94;75.44;;
47109;Laerm;32856;51.422;6.794;2024-03-23T12:10:18;65.96;51.66;76.50;;
47109;Laerm;32856;51.422;6.794;2024-03-23T12:12:45;64.49;48.85;85.10;;
47109;Laerm;32856;51.422;6.794;2024-03-23T12:15:11;65.72;47.74;79.04;;
47109;Laerm;32856;51.422;6.794;2024-03-23T12:17:39;65.11;49.90;75.52;;
47109;Laerm;32856;51.422;6.794;2024-03-23T12:20:05;68.40;50.84;77.73;;
47109;Laerm;32856;51.422;6.794;2024-03-23T12:22:32;63.95;50.25;78.85;;
47109;Laerm;32856;51.422;6.794;2024-03-23T12:24:59;64.63;47.16;74.36;;
47109;Laerm;32856;51.422;6.794;2024-03-23T12:27:26;65.18;49.50;78.44;;
47109;Laerm;32856;51.422;6.794;2024-03-23T12:29:51;64.52;48.58;76.70;;
47109;Laerm;32856;51.422;6.794;2024-03-23T12:32:18;68.38;48.54;77.29;;
47109;Laerm;32856;51.422;6.794;2024-03-23T12:34:45;65.04;48.76;75.99;;
47109;Laerm;32856;51.422;6.794;2024-03-23T12:37:13;65.88;48.80;75.91;;
47109;Laerm;32856;51.422;6.794;2024-03-23T12:39:38;64.86;49.21;75.29;;
47109;Laerm;32856;51.422;6.794;2024-03-23T12:42:05;64.78;47.43;77.66;;
47109;Laerm;32856;51.422;6.794;2024-03-23T12:44:30;64.99;49.94;79.87;;
47109;Laerm;32856;51.422;6.794;2024-03-23T12:46:57;66.47;52.53;79.09;;
47109;Laerm;32856;51.422;6.794;2024-03-23T12:49:23;66.75;52.95;88.04;;
47109;Laerm;32856;51.422;6.794;2024-03-23T12:51:54;65.43;50.60;89.80;;
47109;Laerm;32856;51.422;6.794;2024-03-23T12:54:20;67.72;50.12;80.71;;
47109;Laerm;32856;51.422;6.794;2024-03-23T12:56:46;64.29;50.46;75.22;;
47109;Laerm;32856;51.422;6.794;2024-03-23T12:59:12;66.05;49.41;79.17;;
47109;Laerm;32856;51.422;6.794;2024-03-23T13:01:39;64.87;49.40;75.71;;
47109;Laerm;32856;51.422;6.794;2024-03-23T13:04:05;63.69;49.20;75.85;;
47109;Laerm;32856;51.422;6.794;2024-03-23T13:06:31;65.44;47.68;75.67;;
47109;Laerm;32856;51.422;6.794;2024-03-23T13:09:00;63.65;48.31;75.75;;
47109;Laerm;32856;51.422;6.794;2024-03-23T13:11:27;64.61;49.36;75.72;;
47109;Laerm;32856;51.422;6.794;2024-03-23T13:13:52;66.19;49.65;79.11;;
47109;Laerm;32856;51.422;6.794;2024-03-23T13:16:19;65.53;48.87;77.72;;
47109;Laerm;32856;51.422;6.794;2024-03-23T13:18:44;65.58;48.98;76.82;;
47109;Laerm;32856;51.422;6.794;2024-03-23T13:21:11;63.30;48.02;74.48;;
47109;Laerm;32856;51.422;6.794;2024-03-23T13:23:36;67.82;51.62;78.82;;
47109;Laerm;32856;51.422;6.794;2024-03-23T13:26:06;66.74;48.92;79.56;;
47109;Laerm;32856;51.422;6.794;2024-03-23T13:28:33;63.03;48.90;73.05;;
47109;Laerm;32856;51.422;6.794;2024-03-23T13:31:00;66.13;48.91;78.42;;
47109;Laerm;32856;51.422;6.794;2024-03-23T13:33:29;66.20;49.74;75.57;;
47109;Laerm;32856;51.422;6.794;2024-03-23T13:35:57;64.90;48.48;75.90;;
47109;Laerm;32856;51.422;6.794;2024-03-23T13:38:23;68.16;49.90;77.33;;
47109;Laerm;32856;51.422;6.794;2024-03-23T13:40:51;67.00;49.35;79.72;;
47109;Laerm;32856;51.422;6.794;2024-03-23T13:43:18;66.24;47.40;75.74;;
47109;Laerm;32856;51.422;6.794;2024-03-23T13:45:44;67.42;50.19;76.08;;
47109;Laerm;32856;51.422;6.794;2024-03-23T13:48:11;66.92;46.02;76.75;;
47109;Laerm;32856;51.422;6.794;2024-03-23T13:50:37;66.64;50.77;74.67;;
47109;Laerm;32856;51.422;6.794;2024-03-23T13:53:03;65.88;48.70;75.50;;
47109;Laerm;32856;51.422;6.794;2024-03-23T13:55:29;65.08;47.68;74.14;;
47109;Laerm;32856;51.422;6.794;2024-03-23T13:57:56;66.49;45.97;76.29;;
47109;Laerm;32856;51.422;6.794;2024-03-23T14:00:22;65.89;45.54;75.23;;
47109;Laerm;32856;51.422;6.794;2024-03-23T14:02:49;66.02;49.45;76.25;;
47109;Laerm;32856;51.422;6.794;2024-03-23T14:05:14;66.90;50.86;75.80;;
47109;Laerm;32856;51.422;6.794;2024-03-23T14:07:41;64.57;48.20;80.34;;
47109;Laerm;32856;51.422;6.794;2024-03-23T14:10:07;66.89;50.16;82.36;;
47109;Laerm;32856;51.422;6.794;2024-03-23T14:12:36;66.60;49.45;81.53;;
47109;Laerm;32856;51.422;6.794;2024-03-23T14:15:04;66.07;51.76;80.97;;
47109;Laerm;32856;51.422;6.794;2024-03-23T14:17:32;66.41;50.87;76.97;;
47109;Laerm;32856;51.422;6.794;2024-03-23T14:19:58;68.23;54.63;82.26;;
47109;Laerm;32856;51.422;6.794;2024-03-23T14:22:26;68.07;50.74;83.73;;
47109;Laerm;32856;51.422;6.794;2024-03-23T14:24:52;65.57;50.37;77.16;;
47109;Laerm;32856;51.422;6.794;2024-03-23T14:27:18;64.71;50.22;77.63;;
47109;Laerm;32856;51.422;6.794;2024-03-23T14:29:45;65.73;48.51;79.86;;
47109;Laerm;32856;51.422;6.794;2024-03-23T14:32:11;64.70;48.54;75.66;;
47109;Laerm;32856;51.422;6.794;2024-03-23T14:34:39;61.17;49.48;75.66;;
47109;Laerm;32856;51.422;6.794;2024-03-23T14:37:05;61.55;48.43;74.54;;
47109;Laerm;32856;51.422;6.794;2024-03-23T14:39:31;58.93;48.80;72.44;;